Walled Lake, Michigan
Current Conditions -  °F | °C
As of 6:53 PM on Tuesday 25 Nov 2014 (Local Time) from KPTK Reporting Station
Light Snow Light Snow  
Wind Chill: 21°   Ceiling: 2100
Heat Index: 29°   Visibility: 9mi
Dew Point: 22°   Wind: 8mph
Humidity: 75%   Direction: 250°WSW
Pressure: 30.1"   Gusts: NA
Location:  42.54°N, 83.47°W
Report Text: KPTK 252353Z 25007KT 9SM -SN OVC021 M02/M06 A3010 RMK AO2 SLP206 P0000 60000 T10171056 11006 21017 51020
Loading
Personal Weather Stations






























Interactive Weather Map New forecast layout! Learn more

10-Day Weather Forecast

Advertisements
Track Severe Weather on mobile